<?xml version="1.0" encoding="UTF-8" standalone="no" ?>
<gpx xmlns="http://www.topografix.com/GPX/1/1" xmlns:xsi="http://www.w3.org/2001/XMLSchema-instance" xsi:schemaLocation="http://www.topografix.com/GPX/1/1 http://www.topografix.com/GPX/1/1/gpx.xsd" version="1.1" creator="VisuGPX - https://www.visugpx.com">
  <metadata>
    <name>VacancesDricouZoe</name>
  </metadata>
  <trk>
    <name><![CDATA[Journal actif: 2021-06-29 14:12]]></name>
    <trkseg>
      <trkpt lat="45.67851" lon="0.15925">
        <ele>35.23</ele>
        <time>2021-06-29T16:12:05Z</time>
      </trkpt>
      <trkpt lat="45.67874" lon="0.15924">
        <ele>36.19</ele>
        <time>2021-06-29T16:12:16Z</time>
      </trkpt>
      <trkpt lat="45.67877" lon="0.15924">
        <ele>36.19</ele>
        <time>2021-06-29T16:12:19Z</time>
      </trkpt>
      <trkpt lat="45.67877" lon="0.15924">
        <ele>36.19</ele>
        <time>2021-06-29T16:12:20Z</time>
      </trkpt>
      <trkpt lat="45.67877" lon="0.15917">
        <ele>36.19</ele>
        <time>2021-06-29T16:12:21Z</time>
      </trkpt>
      <trkpt lat="45.67875" lon="0.15848">
        <ele>34.74</ele>
        <time>2021-06-29T16:12:31Z</time>
      </trkpt>
      <trkpt lat="45.67869" lon="0.15722">
        <ele>32.34</ele>
        <time>2021-06-29T16:12:46Z</time>
      </trkpt>
      <trkpt lat="45.67877" lon="0.15705">
        <ele>32.34</ele>
        <time>2021-06-29T16:12:50Z</time>
      </trkpt>
      <trkpt lat="45.67881" lon="0.15704">
        <ele>32.34</ele>
        <time>2021-06-29T16:12:51Z</time>
      </trkpt>
      <trkpt lat="45.67886" lon="0.15702">
        <ele>32.34</ele>
        <time>2021-06-29T16:12:52Z</time>
      </trkpt>
      <trkpt lat="45.67961" lon="0.15679">
        <ele>31.86</ele>
        <time>2021-06-29T16:13:00Z</time>
      </trkpt>
      <trkpt lat="45.68106" lon="0.15631">
        <ele>34.26</ele>
        <time>2021-06-29T16:13:15Z</time>
      </trkpt>
      <trkpt lat="45.68258" lon="0.15606">
        <ele>29.46</ele>
        <time>2021-06-29T16:13:28Z</time>
      </trkpt>
      <trkpt lat="45.68433" lon="0.15607">
        <ele>27.53</ele>
        <time>2021-06-29T16:13:40Z</time>
      </trkpt>
      <trkpt lat="45.68623" lon="0.15609">
        <ele>23.69</ele>
        <time>2021-06-29T16:13:54Z</time>
      </trkpt>
      <trkpt lat="45.68824" lon="0.15611">
        <ele>25.13</ele>
        <time>2021-06-29T16:14:07Z</time>
      </trkpt>
      <trkpt lat="45.68922" lon="0.15608">
        <ele>27.53</ele>
        <time>2021-06-29T16:14:14Z</time>
      </trkpt>
      <trkpt lat="45.68932" lon="0.15605">
        <ele>28.02</ele>
        <time>2021-06-29T16:14:15Z</time>
      </trkpt>
      <trkpt lat="45.68942" lon="0.15601">
        <ele>27.05</ele>
        <time>2021-06-29T16:14:16Z</time>
      </trkpt>
      <trkpt lat="45.68974" lon="0.15591">
        <ele>26.57</ele>
        <time>2021-06-29T16:14:18Z</time>
      </trkpt>
      <trkpt lat="45.68974" lon="0.15591">
        <ele>26.57</ele>
        <time>2021-06-29T16:14:19Z</time>
      </trkpt>
      <trkpt lat="45.69051" lon="0.15583">
        <ele>28.98</ele>
        <time>2021-06-29T16:14:25Z</time>
      </trkpt>
      <trkpt lat="45.69064" lon="0.15581">
        <ele>28.5</ele>
        <time>2021-06-29T16:14:26Z</time>
      </trkpt>
      <trkpt lat="45.69214" lon="0.15532">
        <ele>29.46</ele>
        <time>2021-06-29T16:14:37Z</time>
      </trkpt>
      <trkpt lat="45.69299" lon="0.155">
        <ele>28.5</ele>
        <time>2021-06-29T16:14:43Z</time>
      </trkpt>
      <trkpt lat="45.69313" lon="0.15493">
        <ele>29.46</ele>
        <time>2021-06-29T16:14:44Z</time>
      </trkpt>
      <trkpt lat="45.69444" lon="0.15378">
        <ele>33.78</ele>
        <time>2021-06-29T16:14:54Z</time>
      </trkpt>
      <trkpt lat="45.69625" lon="0.15182">
        <ele>34.26</ele>
        <time>2021-06-29T16:15:07Z</time>
      </trkpt>
      <trkpt lat="45.6982" lon="0.14975">
        <ele>32.34</ele>
        <time>2021-06-29T16:15:21Z</time>
      </trkpt>
      <trkpt lat="45.69852" lon="0.14956">
        <ele>32.82</ele>
        <time>2021-06-29T16:15:22Z</time>
      </trkpt>
      <trkpt lat="45.69852" lon="0.14956">
        <ele>33.78</ele>
        <time>2021-06-29T16:15:23Z</time>
      </trkpt>
      <trkpt lat="45.69952" lon="0.14912">
        <ele>34.26</ele>
        <time>2021-06-29T16:15:30Z</time>
      </trkpt>
      <trkpt lat="45.69965" lon="0.14907">
        <ele>34.74</ele>
        <time>2021-06-29T16:15:31Z</time>
      </trkpt>
      <trkpt lat="45.69974" lon="0.14897">
        <ele>33.3</ele>
        <time>2021-06-29T16:15:32Z</time>
      </trkpt>
      <trkpt lat="45.69991" lon="0.14868">
        <ele>31.86</ele>
        <time>2021-06-29T16:15:33Z</time>
      </trkpt>
      <trkpt lat="45.69991" lon="0.14868">
        <ele>32.82</ele>
        <time>2021-06-29T16:15:34Z</time>
      </trkpt>
      <trkpt lat="45.69997" lon="0.14832">
        <ele>32.82</ele>
        <time>2021-06-29T16:15:35Z</time>
      </trkpt>
      <trkpt lat="45.69997" lon="0.14832">
        <ele>32.82</ele>
        <time>2021-06-29T16:15:36Z</time>
      </trkpt>
      <trkpt lat="45.69999" lon="0.14811">
        <ele>31.86</ele>
        <time>2021-06-29T16:15:37Z</time>
      </trkpt>
      <trkpt lat="45.7001" lon="0.1456">
        <ele>31.38</ele>
        <time>2021-06-29T16:15:47Z</time>
      </trkpt>
      <trkpt lat="45.70016" lon="0.14517">
        <ele>32.82</ele>
        <time>2021-06-29T16:15:50Z</time>
      </trkpt>
      <trkpt lat="45.70021" lon="0.14497">
        <ele>32.82</ele>
        <time>2021-06-29T16:15:51Z</time>
      </trkpt>
      <trkpt lat="45.70048" lon="0.14409">
        <ele>34.26</ele>
        <time>2021-06-29T16:15:55Z</time>
      </trkpt>
      <trkpt lat="45.70056" lon="0.14399">
        <ele>33.78</ele>
        <time>2021-06-29T16:15:56Z</time>
      </trkpt>
      <trkpt lat="45.70064" lon="0.1439">
        <ele>33.78</ele>
        <time>2021-06-29T16:15:57Z</time>
      </trkpt>
      <trkpt lat="45.70064" lon="0.1439">
        <ele>34.74</ele>
        <time>2021-06-29T16:15:58Z</time>
      </trkpt>
      <trkpt lat="45.70083" lon="0.14383">
        <ele>33.78</ele>
        <time>2021-06-29T16:15:59Z</time>
      </trkpt>
      <trkpt lat="45.70095" lon="0.14383">
        <ele>33.3</ele>
        <time>2021-06-29T16:16:00Z</time>
      </trkpt>
      <trkpt lat="45.70095" lon="0.14383">
        <ele>33.3</ele>
        <time>2021-06-29T16:16:01Z</time>
      </trkpt>
      <trkpt lat="45.70107" lon="0.14384">
        <ele>33.78</ele>
        <time>2021-06-29T16:16:02Z</time>
      </trkpt>
      <trkpt lat="45.70233" lon="0.14437">
        <ele>32.34</ele>
        <time>2021-06-29T16:16:11Z</time>
      </trkpt>
      <trkpt lat="45.70377" lon="0.14538">
        <ele>36.19</ele>
        <time>2021-06-29T16:16:20Z</time>
      </trkpt>
      <trkpt lat="45.70525" lon="0.14632">
        <ele>39.07</ele>
        <time>2021-06-29T16:16:29Z</time>
      </trkpt>
      <trkpt lat="45.70652" lon="0.14678">
        <ele>39.55</ele>
        <time>2021-06-29T16:16:37Z</time>
      </trkpt>
      <trkpt lat="45.70773" lon="0.14675">
        <ele>46.76</ele>
        <time>2021-06-29T16:16:46Z</time>
      </trkpt>
      <trkpt lat="45.70917" lon="0.14623">
        <ele>55.41</ele>
        <time>2021-06-29T16:16:58Z</time>
      </trkpt>
      <trkpt lat="45.71056" lon="0.14575">
        <ele>61.66</ele>
        <time>2021-06-29T16:17:11Z</time>
      </trkpt>
      <trkpt lat="45.71135" lon="0.14546">
        <ele>64.55</ele>
        <time>2021-06-29T16:17:21Z</time>
      </trkpt>
      <trkpt lat="45.71141" lon="0.14544">
        <ele>64.07</ele>
        <time>2021-06-29T16:17:22Z</time>
      </trkpt>
      <trkpt lat="45.71203" lon="0.14522">
        <ele>64.55</ele>
        <time>2021-06-29T16:17:31Z</time>
      </trkpt>
      <trkpt lat="45.71324" lon="0.14482">
        <ele>64.55</ele>
        <time>2021-06-29T16:17:43Z</time>
      </trkpt>
      <trkpt lat="45.71419" lon="0.14468">
        <ele>63.1</ele>
        <time>2021-06-29T16:17:52Z</time>
      </trkpt>
      <trkpt lat="45.71576" lon="0.14502">
        <ele>67.43</ele>
        <time>2021-06-29T16:18:04Z</time>
      </trkpt>
      <trkpt lat="45.71816" lon="0.14553">
        <ele>77.04</ele>
        <time>2021-06-29T16:18:19Z</time>
      </trkpt>
      <trkpt lat="45.72184" lon="0.14632">
        <ele>90.02</ele>
        <time>2021-06-29T16:18:41Z</time>
      </trkpt>
      <trkpt lat="45.72495" lon="0.14697">
        <ele>92.42</ele>
        <time>2021-06-29T16:19:00Z</time>
      </trkpt>
      <trkpt lat="45.72795" lon="0.1476">
        <ele>90.02</ele>
        <time>2021-06-29T16:19:17Z</time>
      </trkpt>
      <trkpt lat="45.73235" lon="0.14853">
        <ele>94.35</ele>
        <time>2021-06-29T16:19:41Z</time>
      </trkpt>
      <trkpt lat="45.73553" lon="0.1492">
        <ele>86.66</ele>
        <time>2021-06-29T16:19:59Z</time>
      </trkpt>
      <trkpt lat="45.73613" lon="0.14925">
        <ele>86.66</ele>
        <time>2021-06-29T16:20:04Z</time>
      </trkpt>
      <trkpt lat="45.73629" lon="0.14923">
        <ele>86.18</ele>
        <time>2021-06-29T16:20:05Z</time>
      </trkpt>
      <trkpt lat="45.73646" lon="0.1492">
        <ele>86.18</ele>
        <time>2021-06-29T16:20:06Z</time>
      </trkpt>
      <trkpt lat="45.73681" lon="0.14907">
        <ele>86.66</ele>
        <time>2021-06-29T16:20:07Z</time>
      </trkpt>
      <trkpt lat="45.73681" lon="0.14907">
        <ele>86.66</ele>
        <time>2021-06-29T16:20:08Z</time>
      </trkpt>
      <trkpt lat="45.7394" lon="0.14787">
        <ele>86.18</ele>
        <time>2021-06-29T16:20:22Z</time>
      </trkpt>
      <trkpt lat="45.74221" lon="0.14662">
        <ele>94.83</ele>
        <time>2021-06-29T16:20:37Z</time>
      </trkpt>
      <trkpt lat="45.74449" lon="0.14622">
        <ele>91.94</ele>
        <time>2021-06-29T16:20:49Z</time>
      </trkpt>
      <trkpt lat="45.74742" lon="0.14577">
        <ele>106.84</ele>
        <time>2021-06-29T16:21:05Z</time>
      </trkpt>
      <trkpt lat="45.74871" lon="0.1459">
        <ele>107.81</ele>
        <time>2021-06-29T16:21:13Z</time>
      </trkpt>
      <trkpt lat="45.75079" lon="0.14688">
        <ele>99.63</ele>
        <time>2021-06-29T16:21:26Z</time>
      </trkpt>
      <trkpt lat="45.75096" lon="0.14692">
        <ele>99.63</ele>
        <time>2021-06-29T16:21:27Z</time>
      </trkpt>
      <trkpt lat="45.75113" lon="0.14692">
        <ele>98.67</ele>
        <time>2021-06-29T16:21:28Z</time>
      </trkpt>
      <trkpt lat="45.75129" lon="0.14692">
        <ele>96.27</ele>
        <time>2021-06-29T16:21:29Z</time>
      </trkpt>
      <trkpt lat="45.75147" lon="0.14687">
        <ele>95.79</ele>
        <time>2021-06-29T16:21:30Z</time>
      </trkpt>
      <trkpt lat="45.75425" lon="0.14585">
        <ele>77.52</ele>
        <time>2021-06-29T16:21:47Z</time>
      </trkpt>
      <trkpt lat="45.75607" lon="0.14513">
        <ele>69.83</ele>
        <time>2021-06-29T16:21:59Z</time>
      </trkpt>
      <trkpt lat="45.75619" lon="0.14505">
        <ele>69.83</ele>
        <time>2021-06-29T16:22:00Z</time>
      </trkpt>
      <trkpt lat="45.75631" lon="0.14496">
        <ele>69.83</ele>
        <time>2021-06-29T16:22:01Z</time>
      </trkpt>
      <trkpt lat="45.75642" lon="0.14485">
        <ele>69.35</ele>
        <time>2021-06-29T16:22:02Z</time>
      </trkpt>
      <trkpt lat="45.75654" lon="0.14471">
        <ele>68.39</ele>
        <time>2021-06-29T16:22:03Z</time>
      </trkpt>
      <trkpt lat="45.758" lon="0.14266">
        <ele>63.1</ele>
        <time>2021-06-29T16:22:17Z</time>
      </trkpt>
      <trkpt lat="45.75812" lon="0.14239">
        <ele>63.1</ele>
        <time>2021-06-29T16:22:19Z</time>
      </trkpt>
      <trkpt lat="45.75817" lon="0.14228">
        <ele>63.1</ele>
        <time>2021-06-29T16:22:20Z</time>
      </trkpt>
      <trkpt lat="45.75821" lon="0.14218">
        <ele>62.62</ele>
        <time>2021-06-29T16:22:21Z</time>
      </trkpt>
      <trkpt lat="45.75823" lon="0.14206">
        <ele>62.14</ele>
        <time>2021-06-29T16:22:22Z</time>
      </trkpt>
      <trkpt lat="45.75824" lon="0.14196">
        <ele>61.66</ele>
        <time>2021-06-29T16:22:23Z</time>
      </trkpt>
      <trkpt lat="45.75826" lon="0.14186">
        <ele>60.7</ele>
        <time>2021-06-29T16:22:24Z</time>
      </trkpt>
      <trkpt lat="45.75827" lon="0.14176">
        <ele>60.7</ele>
        <time>2021-06-29T16:22:25Z</time>
      </trkpt>
      <trkpt lat="45.75827" lon="0.14175">
        <ele>60.7</ele>
        <time>2021-06-29T16:22:26Z</time>
      </trkpt>
      <trkpt lat="45.75833" lon="0.14169">
        <ele>60.22</ele>
        <time>2021-06-29T16:22:27Z</time>
      </trkpt>
      <trkpt lat="45.75837" lon="0.14165">
        <ele>60.22</ele>
        <time>2021-06-29T16:22:28Z</time>
      </trkpt>
      <trkpt lat="45.7584" lon="0.14162">
        <ele>60.22</ele>
        <time>2021-06-29T16:22:29Z</time>
      </trkpt>
      <trkpt lat="45.75849" lon="0.14154">
        <ele>59.74</ele>
        <time>2021-06-29T16:22:30Z</time>
      </trkpt>
      <trkpt lat="45.75849" lon="0.14154">
        <ele>60.22</ele>
        <time>2021-06-29T16:22:31Z</time>
      </trkpt>
      <trkpt lat="45.75852" lon="0.14159">
        <ele>59.74</ele>
        <time>2021-06-29T16:22:32Z</time>
      </trkpt>
      <trkpt lat="45.75856" lon="0.14165">
        <ele>59.74</ele>
        <time>2021-06-29T16:22:33Z</time>
      </trkpt>
      <trkpt lat="45.75867" lon="0.14162">
        <ele>59.26</ele>
        <time>2021-06-29T16:22:34Z</time>
      </trkpt>
      <trkpt lat="45.75867" lon="0.14162">
        <ele>59.26</ele>
        <time>2021-06-29T16:22:35Z</time>
      </trkpt>
      <trkpt lat="45.75879" lon="0.14146">
        <ele>59.26</ele>
        <time>2021-06-29T16:22:36Z</time>
      </trkpt>
      <trkpt lat="45.75941" lon="0.14109">
        <ele>62.14</ele>
        <time>2021-06-29T16:22:44Z</time>
      </trkpt>
      <trkpt lat="45.76118" lon="0.13986">
        <ele>63.1</ele>
        <time>2021-06-29T16:22:58Z</time>
      </trkpt>
      <trkpt lat="45.76234" lon="0.13906">
        <ele>68.87</ele>
        <time>2021-06-29T16:23:09Z</time>
      </trkpt>
      <trkpt lat="45.76239" lon="0.13903">
        <ele>69.35</ele>
        <time>2021-06-29T16:23:10Z</time>
      </trkpt>
      <trkpt lat="45.76242" lon="0.13895">
        <ele>69.35</ele>
        <time>2021-06-29T16:23:11Z</time>
      </trkpt>
      <trkpt lat="45.76242" lon="0.13895">
        <ele>68.87</ele>
        <time>2021-06-29T16:23:12Z</time>
      </trkpt>
      <trkpt lat="45.76242" lon="0.13885">
        <ele>67.91</ele>
        <time>2021-06-29T16:23:13Z</time>
      </trkpt>
      <trkpt lat="45.76242" lon="0.13885">
        <ele>67.43</ele>
        <time>2021-06-29T16:23:14Z</time>
      </trkpt>
      <trkpt lat="45.76242" lon="0.13879">
        <ele>66.95</ele>
        <time>2021-06-29T16:23:15Z</time>
      </trkpt>
      <trkpt lat="45.76244" lon="0.13807">
        <ele>62.62</ele>
        <time>2021-06-29T16:23:28Z</time>
      </trkpt>
      <trkpt lat="45.76244" lon="0.13807">
        <ele>62.14</ele>
        <time>2021-06-29T16:23:29Z</time>
      </trkpt>
      <trkpt lat="45.76241" lon="0.13809">
        <ele>62.14</ele>
        <time>2021-06-29T16:23:30Z</time>
      </trkpt>
      <trkpt lat="45.76237" lon="0.1381">
        <ele>62.14</ele>
        <time>2021-06-29T16:23:31Z</time>
      </trkpt>
      <trkpt lat="45.76237" lon="0.1381">
        <ele>62.14</ele>
        <time>2021-06-29T16:23:32Z</time>
      </trkpt>
      <trkpt lat="45.76198" lon="0.13824">
        <ele>60.7</ele>
        <time>2021-06-29T16:23:46Z</time>
      </trkpt>
      <trkpt lat="45.76168" lon="0.13847">
        <ele>59.74</ele>
        <time>2021-06-29T16:23:59Z</time>
      </trkpt>
      <trkpt lat="45.76162" lon="0.13839">
        <ele>59.74</ele>
        <time>2021-06-29T16:24:09Z</time>
      </trkpt>
      <trkpt lat="45.76162" lon="0.13839">
        <ele>60.22</ele>
        <time>2021-06-29T16:24:20Z</time>
      </trkpt>
      <trkpt lat="45.76167" lon="0.13848">
        <ele>60.22</ele>
        <time>2021-06-29T16:24:21Z</time>
      </trkpt>
      <trkpt lat="45.76169" lon="0.13847">
        <ele>60.22</ele>
        <time>2021-06-29T16:24:22Z</time>
      </trkpt>
      <trkpt lat="45.76185" lon="0.13834">
        <ele>61.18</ele>
        <time>2021-06-29T16:24:33Z</time>
      </trkpt>
      <trkpt lat="45.76185" lon="0.13834">
        <ele>60.7</ele>
        <time>2021-06-29T16:25:47Z</time>
      </trkpt>
      <trkpt lat="45.76185" lon="0.13834">
        <ele>60.22</ele>
        <time>2021-06-29T16:31:40Z</time>
      </trkpt>
      <trkpt lat="45.76185" lon="0.13834">
        <ele>59.74</ele>
        <time>2021-06-29T16:33:36Z</time>
      </trkpt>
      <trkpt lat="45.76185" lon="0.13834">
        <ele>59.74</ele>
        <time>2021-06-29T16:35:20Z</time>
      </trkpt>
      <trkpt lat="45.76185" lon="0.13834">
        <ele>59.74</ele>
        <time>2021-06-29T16:37:45Z</time>
      </trkpt>
      <trkpt lat="45.76185" lon="0.13834">
        <ele>59.74</ele>
        <time>2021-06-29T16:40:11Z</time>
      </trkpt>
      <trkpt lat="45.76185" lon="0.13834">
        <ele>59.26</ele>
        <time>2021-06-29T16:44:09Z</time>
      </trkpt>
      <trkpt lat="45.76185" lon="0.13834">
        <ele>59.26</ele>
        <time>2021-06-29T16:46:50Z</time>
      </trkpt>
      <trkpt lat="45.76185" lon="0.13834">
        <ele>59.74</ele>
        <time>2021-06-29T16:49:02Z</time>
      </trkpt>
      <trkpt lat="45.76185" lon="0.13834">
        <ele>59.74</ele>
        <time>2021-06-29T16:50:54Z</time>
      </trkpt>
      <trkpt lat="45.76185" lon="0.13834">
        <ele>59.74</ele>
        <time>2021-06-29T16:54:33Z</time>
      </trkpt>
      <trkpt lat="45.76185" lon="0.13834">
        <ele>59.74</ele>
        <time>2021-06-29T16:56:32Z</time>
      </trkpt>
      <trkpt lat="45.76185" lon="0.13834">
        <ele>59.74</ele>
        <time>2021-06-29T16:58:33Z</time>
      </trkpt>
      <trkpt lat="45.76185" lon="0.13834">
        <ele>59.74</ele>
        <time>2021-06-29T17:00:49Z</time>
      </trkpt>
      <trkpt lat="45.76185" lon="0.13834">
        <ele>59.74</ele>
        <time>2021-06-29T17:02:37Z</time>
      </trkpt>
      <trkpt lat="45.76185" lon="0.13834">
        <ele>59.74</ele>
        <time>2021-06-29T17:02:43Z</time>
      </trkpt>
      <trkpt lat="45.76185" lon="0.13834">
        <ele>59.74</ele>
        <time>2021-06-29T17:02:44Z</time>
      </trkpt>
      <trkpt lat="45.76187" lon="0.13833">
        <ele>59.74</ele>
        <time>2021-06-29T17:02:45Z</time>
      </trkpt>
      <trkpt lat="45.76188" lon="0.13831">
        <ele>59.74</ele>
        <time>2021-06-29T17:02:46Z</time>
      </trkpt>
      <trkpt lat="45.7619" lon="0.1383">
        <ele>59.74</ele>
        <time>2021-06-29T17:02:47Z</time>
      </trkpt>
      <trkpt lat="45.76192" lon="0.13828">
        <ele>59.74</ele>
        <time>2021-06-29T17:02:48Z</time>
      </trkpt>
      <trkpt lat="45.76195" lon="0.13826">
        <ele>59.74</ele>
        <time>2021-06-29T17:02:49Z</time>
      </trkpt>
      <trkpt lat="45.76237" lon="0.1381">
        <ele>61.18</ele>
        <time>2021-06-29T17:03:01Z</time>
      </trkpt>
      <trkpt lat="45.76243" lon="0.13815">
        <ele>61.18</ele>
        <time>2021-06-29T17:03:02Z</time>
      </trkpt>
      <trkpt lat="45.76243" lon="0.13815">
        <ele>60.7</ele>
        <time>2021-06-29T17:03:03Z</time>
      </trkpt>
      <trkpt lat="45.76243" lon="0.13818">
        <ele>60.7</ele>
        <time>2021-06-29T17:03:04Z</time>
      </trkpt>
      <trkpt lat="45.76243" lon="0.13822">
        <ele>60.7</ele>
        <time>2021-06-29T17:03:05Z</time>
      </trkpt>
      <trkpt lat="45.76243" lon="0.13827">
        <ele>60.7</ele>
        <time>2021-06-29T17:03:06Z</time>
      </trkpt>
      <trkpt lat="45.76242" lon="0.13894">
        <ele>62.14</ele>
        <time>2021-06-29T17:03:17Z</time>
      </trkpt>
      <trkpt lat="45.7623" lon="0.13909">
        <ele>62.62</ele>
        <time>2021-06-29T17:03:22Z</time>
      </trkpt>
      <trkpt lat="45.7623" lon="0.13909">
        <ele>62.62</ele>
        <time>2021-06-29T17:03:23Z</time>
      </trkpt>
      <trkpt lat="45.76168" lon="0.13951">
        <ele>60.7</ele>
        <time>2021-06-29T17:03:32Z</time>
      </trkpt>
      <trkpt lat="45.75994" lon="0.14072">
        <ele>59.74</ele>
        <time>2021-06-29T17:03:48Z</time>
      </trkpt>
      <trkpt lat="45.75894" lon="0.14143">
        <ele>62.62</ele>
        <time>2021-06-29T17:04:00Z</time>
      </trkpt>
      <trkpt lat="45.75888" lon="0.14145">
        <ele>63.1</ele>
        <time>2021-06-29T17:04:01Z</time>
      </trkpt>
      <trkpt lat="45.75883" lon="0.14146">
        <ele>63.58</ele>
        <time>2021-06-29T17:04:02Z</time>
      </trkpt>
      <trkpt lat="45.75879" lon="0.14146">
        <ele>63.58</ele>
        <time>2021-06-29T17:04:03Z</time>
      </trkpt>
      <trkpt lat="45.7587" lon="0.14143">
        <ele>64.07</ele>
        <time>2021-06-29T17:04:04Z</time>
      </trkpt>
      <trkpt lat="45.75867" lon="0.14139">
        <ele>64.55</ele>
        <time>2021-06-29T17:04:05Z</time>
      </trkpt>
      <trkpt lat="45.7586" lon="0.14135">
        <ele>65.03</ele>
        <time>2021-06-29T17:04:06Z</time>
      </trkpt>
      <trkpt lat="45.7586" lon="0.14135">
        <ele>64.55</ele>
        <time>2021-06-29T17:04:07Z</time>
      </trkpt>
      <trkpt lat="45.75855" lon="0.14137">
        <ele>64.55</ele>
        <time>2021-06-29T17:04:08Z</time>
      </trkpt>
      <trkpt lat="45.75851" lon="0.14139">
        <ele>64.07</ele>
        <time>2021-06-29T17:04:09Z</time>
      </trkpt>
      <trkpt lat="45.75837" lon="0.14165">
        <ele>64.07</ele>
        <time>2021-06-29T17:04:12Z</time>
      </trkpt>
      <trkpt lat="45.75827" lon="0.14175">
        <ele>64.07</ele>
        <time>2021-06-29T17:04:13Z</time>
      </trkpt>
      <trkpt lat="45.75827" lon="0.14175">
        <ele>62.62</ele>
        <time>2021-06-29T17:04:14Z</time>
      </trkpt>
      <trkpt lat="45.75826" lon="0.14183">
        <ele>62.14</ele>
        <time>2021-06-29T17:04:15Z</time>
      </trkpt>
      <trkpt lat="45.75825" lon="0.14193">
        <ele>62.14</ele>
        <time>2021-06-29T17:04:16Z</time>
      </trkpt>
      <trkpt lat="45.75812" lon="0.1424">
        <ele>61.66</ele>
        <time>2021-06-29T17:04:19Z</time>
      </trkpt>
      <trkpt lat="45.75812" lon="0.1424">
        <ele>61.66</ele>
        <time>2021-06-29T17:04:20Z</time>
      </trkpt>
      <trkpt lat="45.75808" lon="0.14251">
        <ele>62.62</ele>
        <time>2021-06-29T17:04:21Z</time>
      </trkpt>
      <trkpt lat="45.75802" lon="0.14262">
        <ele>63.58</ele>
        <time>2021-06-29T17:04:22Z</time>
      </trkpt>
      <trkpt lat="45.75794" lon="0.14274">
        <ele>64.55</ele>
        <time>2021-06-29T17:04:23Z</time>
      </trkpt>
      <trkpt lat="45.75664" lon="0.14456">
        <ele>70.79</ele>
        <time>2021-06-29T17:04:37Z</time>
      </trkpt>
      <trkpt lat="45.75636" lon="0.14491">
        <ele>71.76</ele>
        <time>2021-06-29T17:04:40Z</time>
      </trkpt>
      <trkpt lat="45.75615" lon="0.14508">
        <ele>72.72</ele>
        <time>2021-06-29T17:04:41Z</time>
      </trkpt>
      <trkpt lat="45.75615" lon="0.14508">
        <ele>72.24</ele>
        <time>2021-06-29T17:04:42Z</time>
      </trkpt>
      <trkpt lat="45.75604" lon="0.14516">
        <ele>72.72</ele>
        <time>2021-06-29T17:04:43Z</time>
      </trkpt>
      <trkpt lat="45.75592" lon="0.14521">
        <ele>73.2</ele>
        <time>2021-06-29T17:04:44Z</time>
      </trkpt>
      <trkpt lat="45.75392" lon="0.14597">
        <ele>83.29</ele>
        <time>2021-06-29T17:04:57Z</time>
      </trkpt>
      <trkpt lat="45.75165" lon="0.1468">
        <ele>97.23</ele>
        <time>2021-06-29T17:05:11Z</time>
      </trkpt>
      <trkpt lat="45.75115" lon="0.14692">
        <ele>99.15</ele>
        <time>2021-06-29T17:05:13Z</time>
      </trkpt>
      <trkpt lat="45.75115" lon="0.14692">
        <ele>99.63</ele>
        <time>2021-06-29T17:05:14Z</time>
      </trkpt>
      <trkpt lat="45.75099" lon="0.14692">
        <ele>100.11</ele>
        <time>2021-06-29T17:05:15Z</time>
      </trkpt>
      <trkpt lat="45.75083" lon="0.14689">
        <ele>102.04</ele>
        <time>2021-06-29T17:05:16Z</time>
      </trkpt>
      <trkpt lat="45.75066" lon="0.14684">
        <ele>103</ele>
        <time>2021-06-29T17:05:17Z</time>
      </trkpt>
      <trkpt lat="45.7505" lon="0.14679">
        <ele>104.44</ele>
        <time>2021-06-29T17:05:18Z</time>
      </trkpt>
      <trkpt lat="45.74811" lon="0.14574">
        <ele>109.25</ele>
        <time>2021-06-29T17:05:31Z</time>
      </trkpt>
      <trkpt lat="45.74811" lon="0.14574">
        <ele>109.73</ele>
        <time>2021-06-29T17:05:32Z</time>
      </trkpt>
      <trkpt lat="45.74792" lon="0.14573">
        <ele>109.25</ele>
        <time>2021-06-29T17:05:33Z</time>
      </trkpt>
      <trkpt lat="45.74774" lon="0.14572">
        <ele>107.81</ele>
        <time>2021-06-29T17:05:34Z</time>
      </trkpt>
      <trkpt lat="45.74754" lon="0.14575">
        <ele>107.81</ele>
        <time>2021-06-29T17:05:35Z</time>
      </trkpt>
      <trkpt lat="45.74357" lon="0.14637">
        <ele>92.9</ele>
        <time>2021-06-29T17:05:55Z</time>
      </trkpt>
      <trkpt lat="45.74123" lon="0.14704">
        <ele>94.35</ele>
        <time>2021-06-29T17:06:07Z</time>
      </trkpt>
      <trkpt lat="45.7378" lon="0.1486">
        <ele>90.02</ele>
        <time>2021-06-29T17:06:25Z</time>
      </trkpt>
      <trkpt lat="45.73584" lon="0.14926">
        <ele>92.42</ele>
        <time>2021-06-29T17:06:36Z</time>
      </trkpt>
      <trkpt lat="45.73365" lon="0.14881">
        <ele>97.23</ele>
        <time>2021-06-29T17:06:47Z</time>
      </trkpt>
      <trkpt lat="45.72918" lon="0.14786">
        <ele>94.35</ele>
        <time>2021-06-29T17:07:08Z</time>
      </trkpt>
      <trkpt lat="45.72502" lon="0.14698">
        <ele>99.63</ele>
        <time>2021-06-29T17:07:28Z</time>
      </trkpt>
      <trkpt lat="45.72172" lon="0.14629">
        <ele>95.31</ele>
        <time>2021-06-29T17:07:45Z</time>
      </trkpt>
      <trkpt lat="45.7194" lon="0.14579">
        <ele>86.18</ele>
        <time>2021-06-29T17:07:58Z</time>
      </trkpt>
      <trkpt lat="45.71713" lon="0.14531">
        <ele>78</ele>
        <time>2021-06-29T17:08:13Z</time>
      </trkpt>
      <trkpt lat="45.71517" lon="0.1449">
        <ele>69.83</ele>
        <time>2021-06-29T17:08:28Z</time>
      </trkpt>
      <trkpt lat="45.71376" lon="0.14467">
        <ele>65.51</ele>
        <time>2021-06-29T17:08:41Z</time>
      </trkpt>
      <trkpt lat="45.71365" lon="0.14469">
        <ele>66.47</ele>
        <time>2021-06-29T17:08:42Z</time>
      </trkpt>
      <trkpt lat="45.71206" lon="0.14521">
        <ele>68.39</ele>
        <time>2021-06-29T17:08:57Z</time>
      </trkpt>
      <trkpt lat="45.71159" lon="0.14538">
        <ele>67.43</ele>
        <time>2021-06-29T17:09:04Z</time>
      </trkpt>
      <trkpt lat="45.71119" lon="0.14552">
        <ele>65.51</ele>
        <time>2021-06-29T17:09:12Z</time>
      </trkpt>
      <trkpt lat="45.7104" lon="0.14581">
        <ele>64.55</ele>
        <time>2021-06-29T17:09:24Z</time>
      </trkpt>
      <trkpt lat="45.70953" lon="0.1461">
        <ele>62.14</ele>
        <time>2021-06-29T17:09:37Z</time>
      </trkpt>
      <trkpt lat="45.70826" lon="0.14657">
        <ele>55.89</ele>
        <time>2021-06-29T17:09:51Z</time>
      </trkpt>
      <trkpt lat="45.70686" lon="0.14685">
        <ele>46.28</ele>
        <time>2021-06-29T17:10:03Z</time>
      </trkpt>
      <trkpt lat="45.70576" lon="0.14655">
        <ele>43.88</ele>
        <time>2021-06-29T17:10:11Z</time>
      </trkpt>
      <trkpt lat="45.70401" lon="0.14557">
        <ele>41.47</ele>
        <time>2021-06-29T17:10:22Z</time>
      </trkpt>
      <trkpt lat="45.70221" lon="0.14432">
        <ele>39.07</ele>
        <time>2021-06-29T17:10:33Z</time>
      </trkpt>
      <trkpt lat="45.70117" lon="0.14388">
        <ele>39.07</ele>
        <time>2021-06-29T17:10:40Z</time>
      </trkpt>
      <trkpt lat="45.70085" lon="0.14383">
        <ele>38.11</ele>
        <time>2021-06-29T17:10:43Z</time>
      </trkpt>
      <trkpt lat="45.70076" lon="0.14383">
        <ele>37.15</ele>
        <time>2021-06-29T17:10:44Z</time>
      </trkpt>
      <trkpt lat="45.70069" lon="0.14384">
        <ele>37.15</ele>
        <time>2021-06-29T17:10:45Z</time>
      </trkpt>
      <trkpt lat="45.70061" lon="0.14393">
        <ele>37.15</ele>
        <time>2021-06-29T17:10:46Z</time>
      </trkpt>
      <trkpt lat="45.70047" lon="0.14411">
        <ele>36.19</ele>
        <time>2021-06-29T17:10:47Z</time>
      </trkpt>
      <trkpt lat="45.70041" lon="0.14427">
        <ele>35.71</ele>
        <time>2021-06-29T17:10:48Z</time>
      </trkpt>
      <trkpt lat="45.70041" lon="0.14427">
        <ele>34.74</ele>
        <time>2021-06-29T17:10:49Z</time>
      </trkpt>
      <trkpt lat="45.70012" lon="0.14535">
        <ele>30.9</ele>
        <time>2021-06-29T17:10:54Z</time>
      </trkpt>
      <trkpt lat="45.70012" lon="0.14535">
        <ele>29.94</ele>
        <time>2021-06-29T17:10:55Z</time>
      </trkpt>
      <trkpt lat="45.7001" lon="0.14558">
        <ele>28.98</ele>
        <time>2021-06-29T17:10:56Z</time>
      </trkpt>
      <trkpt lat="45.7001" lon="0.1458">
        <ele>27.53</ele>
        <time>2021-06-29T17:10:57Z</time>
      </trkpt>
      <trkpt lat="45.7001" lon="0.14604">
        <ele>27.05</ele>
        <time>2021-06-29T17:10:58Z</time>
      </trkpt>
      <trkpt lat="45.7" lon="0.14798">
        <ele>25.61</ele>
        <time>2021-06-29T17:11:07Z</time>
      </trkpt>
      <trkpt lat="45.69994" lon="0.14854">
        <ele>25.61</ele>
        <time>2021-06-29T17:11:10Z</time>
      </trkpt>
      <trkpt lat="45.69989" lon="0.14871">
        <ele>27.53</ele>
        <time>2021-06-29T17:11:11Z</time>
      </trkpt>
      <trkpt lat="45.69982" lon="0.14885">
        <ele>29.46</ele>
        <time>2021-06-29T17:11:12Z</time>
      </trkpt>
      <trkpt lat="45.69975" lon="0.14897">
        <ele>28.98</ele>
        <time>2021-06-29T17:11:13Z</time>
      </trkpt>
      <trkpt lat="45.69965" lon="0.14906">
        <ele>28.5</ele>
        <time>2021-06-29T17:11:14Z</time>
      </trkpt>
      <trkpt lat="45.69941" lon="0.14917">
        <ele>27.53</ele>
        <time>2021-06-29T17:11:15Z</time>
      </trkpt>
      <trkpt lat="45.69941" lon="0.14917">
        <ele>27.05</ele>
        <time>2021-06-29T17:11:16Z</time>
      </trkpt>
      <trkpt lat="45.69838" lon="0.14964">
        <ele>30.42</ele>
        <time>2021-06-29T17:11:25Z</time>
      </trkpt>
      <trkpt lat="45.69814" lon="0.14979">
        <ele>29.94</ele>
        <time>2021-06-29T17:11:26Z</time>
      </trkpt>
      <trkpt lat="45.69814" lon="0.14979">
        <ele>30.42</ele>
        <time>2021-06-29T17:11:27Z</time>
      </trkpt>
      <trkpt lat="45.69802" lon="0.14989">
        <ele>30.9</ele>
        <time>2021-06-29T17:11:28Z</time>
      </trkpt>
      <trkpt lat="45.6979" lon="0.15001">
        <ele>30.42</ele>
        <time>2021-06-29T17:11:29Z</time>
      </trkpt>
      <trkpt lat="45.69626" lon="0.15182">
        <ele>31.38</ele>
        <time>2021-06-29T17:11:43Z</time>
      </trkpt>
      <trkpt lat="45.69461" lon="0.1536">
        <ele>32.82</ele>
        <time>2021-06-29T17:11:56Z</time>
      </trkpt>
      <trkpt lat="45.6935" lon="0.15464">
        <ele>37.63</ele>
        <time>2021-06-29T17:12:05Z</time>
      </trkpt>
      <trkpt lat="45.69234" lon="0.15524">
        <ele>32.34</ele>
        <time>2021-06-29T17:12:16Z</time>
      </trkpt>
      <trkpt lat="45.69123" lon="0.15566">
        <ele>32.82</ele>
        <time>2021-06-29T17:12:29Z</time>
      </trkpt>
      <trkpt lat="45.69075" lon="0.15579">
        <ele>29.46</ele>
        <time>2021-06-29T17:12:34Z</time>
      </trkpt>
      <trkpt lat="45.68968" lon="0.15592">
        <ele>30.42</ele>
        <time>2021-06-29T17:12:44Z</time>
      </trkpt>
      <trkpt lat="45.68872" lon="0.15611">
        <ele>29.46</ele>
        <time>2021-06-29T17:12:54Z</time>
      </trkpt>
      <trkpt lat="45.68719" lon="0.15611">
        <ele>28.98</ele>
        <time>2021-06-29T17:13:08Z</time>
      </trkpt>
      <trkpt lat="45.68572" lon="0.15609">
        <ele>31.38</ele>
        <time>2021-06-29T17:13:21Z</time>
      </trkpt>
      <trkpt lat="45.68442" lon="0.15607">
        <ele>33.3</ele>
        <time>2021-06-29T17:13:32Z</time>
      </trkpt>
      <trkpt lat="45.68272" lon="0.15606">
        <ele>30.9</ele>
        <time>2021-06-29T17:13:45Z</time>
      </trkpt>
      <trkpt lat="45.68175" lon="0.1561">
        <ele>31.38</ele>
        <time>2021-06-29T17:13:54Z</time>
      </trkpt>
      <trkpt lat="45.68024" lon="0.15658">
        <ele>35.23</ele>
        <time>2021-06-29T17:14:09Z</time>
      </trkpt>
      <trkpt lat="45.67894" lon="0.157">
        <ele>32.34</ele>
        <time>2021-06-29T17:14:24Z</time>
      </trkpt>
      <trkpt lat="45.67889" lon="0.15701">
        <ele>32.34</ele>
        <time>2021-06-29T17:14:25Z</time>
      </trkpt>
      <trkpt lat="45.67885" lon="0.15703">
        <ele>32.34</ele>
        <time>2021-06-29T17:14:26Z</time>
      </trkpt>
      <trkpt lat="45.67875" lon="0.15696">
        <ele>31.86</ele>
        <time>2021-06-29T17:14:27Z</time>
      </trkpt>
      <trkpt lat="45.67869" lon="0.15696">
        <ele>33.3</ele>
        <time>2021-06-29T17:14:30Z</time>
      </trkpt>
      <trkpt lat="45.67866" lon="0.15696">
        <ele>33.78</ele>
        <time>2021-06-29T17:14:31Z</time>
      </trkpt>
      <trkpt lat="45.67863" lon="0.15708">
        <ele>34.26</ele>
        <time>2021-06-29T17:14:32Z</time>
      </trkpt>
      <trkpt lat="45.67863" lon="0.15708">
        <ele>34.26</ele>
        <time>2021-06-29T17:14:33Z</time>
      </trkpt>
      <trkpt lat="45.67862" lon="0.15709">
        <ele>33.78</ele>
        <time>2021-06-29T17:14:34Z</time>
      </trkpt>
      <trkpt lat="45.67869" lon="0.15718">
        <ele>33.3</ele>
        <time>2021-06-29T17:14:35Z</time>
      </trkpt>
      <trkpt lat="45.67869" lon="0.15725">
        <ele>33.3</ele>
        <time>2021-06-29T17:14:36Z</time>
      </trkpt>
      <trkpt lat="45.67869" lon="0.15733">
        <ele>32.82</ele>
        <time>2021-06-29T17:14:37Z</time>
      </trkpt>
      <trkpt lat="45.6787" lon="0.15742">
        <ele>32.34</ele>
        <time>2021-06-29T17:14:38Z</time>
      </trkpt>
      <trkpt lat="45.67877" lon="0.15881">
        <ele>34.74</ele>
        <time>2021-06-29T17:14:51Z</time>
      </trkpt>
      <trkpt lat="45.67877" lon="0.15924">
        <ele>34.26</ele>
        <time>2021-06-29T17:14:58Z</time>
      </trkpt>
      <trkpt lat="45.67875" lon="0.15924">
        <ele>34.26</ele>
        <time>2021-06-29T17:14:59Z</time>
      </trkpt>
      <trkpt lat="45.67872" lon="0.15924">
        <ele>34.26</ele>
        <time>2021-06-29T17:15:00Z</time>
      </trkpt>
      <trkpt lat="45.67869" lon="0.15924">
        <ele>34.26</ele>
        <time>2021-06-29T17:15:01Z</time>
      </trkpt>
      <trkpt lat="45.67865" lon="0.15924">
        <ele>34.26</ele>
        <time>2021-06-29T17:15:02Z</time>
      </trkpt>
      <trkpt lat="45.67861" lon="0.15924">
        <ele>34.26</ele>
        <time>2021-06-29T17:15:03Z</time>
      </trkpt>
      <trkpt lat="45.67811" lon="0.15926">
        <ele>33.78</ele>
        <time>2021-06-29T17:15:12Z</time>
      </trkpt>
      <trkpt lat="45.67808" lon="0.15932">
        <ele>33.78</ele>
        <time>2021-06-29T17:15:13Z</time>
      </trkpt>
      <trkpt lat="45.67807" lon="0.15936">
        <ele>33.3</ele>
        <time>2021-06-29T17:15:14Z</time>
      </trkpt>
      <trkpt lat="45.67806" lon="0.1594">
        <ele>32.82</ele>
        <time>2021-06-29T17:15:15Z</time>
      </trkpt>
      <trkpt lat="45.67806" lon="0.15946">
        <ele>32.82</ele>
        <time>2021-06-29T17:15:16Z</time>
      </trkpt>
      <trkpt lat="45.67806" lon="0.15953">
        <ele>32.82</ele>
        <time>2021-06-29T17:15:17Z</time>
      </trkpt>
      <trkpt lat="45.67806" lon="0.1596">
        <ele>33.3</ele>
        <time>2021-06-29T17:15:18Z</time>
      </trkpt>
      <trkpt lat="45.67806" lon="0.15967">
        <ele>33.78</ele>
        <time>2021-06-29T17:15:19Z</time>
      </trkpt>
      <trkpt lat="45.67805" lon="0.15975">
        <ele>33.78</ele>
        <time>2021-06-29T17:15:20Z</time>
      </trkpt>
      <trkpt lat="45.67803" lon="0.15982">
        <ele>33.78</ele>
        <time>2021-06-29T17:15:21Z</time>
      </trkpt>
      <trkpt lat="45.67798" lon="0.16002">
        <ele>34.26</ele>
        <time>2021-06-29T17:15:24Z</time>
      </trkpt>
      <trkpt lat="45.67795" lon="0.16006">
        <ele>34.26</ele>
        <time>2021-06-29T17:15:25Z</time>
      </trkpt>
      <trkpt lat="45.67791" lon="0.1601">
        <ele>33.78</ele>
        <time>2021-06-29T17:15:26Z</time>
      </trkpt>
      <trkpt lat="45.67787" lon="0.16011">
        <ele>33.78</ele>
        <time>2021-06-29T17:15:27Z</time>
      </trkpt>
      <trkpt lat="45.67774" lon="0.16016">
        <ele>33.78</ele>
        <time>2021-06-29T17:15:28Z</time>
      </trkpt>
      <trkpt lat="45.67686" lon="0.1605">
        <ele>33.78</ele>
        <time>2021-06-29T17:15:42Z</time>
      </trkpt>
      <trkpt lat="45.67669" lon="0.16058">
        <ele>33.78</ele>
        <time>2021-06-29T17:15:47Z</time>
      </trkpt>
      <trkpt lat="45.67665" lon="0.16054">
        <ele>33.78</ele>
        <time>2021-06-29T17:15:48Z</time>
      </trkpt>
      <trkpt lat="45.67663" lon="0.1605">
        <ele>33.78</ele>
        <time>2021-06-29T17:15:49Z</time>
      </trkpt>
      <trkpt lat="45.67661" lon="0.16045">
        <ele>33.3</ele>
        <time>2021-06-29T17:15:50Z</time>
      </trkpt>
      <trkpt lat="45.67658" lon="0.1604">
        <ele>33.3</ele>
        <time>2021-06-29T17:15:51Z</time>
      </trkpt>
      <trkpt lat="45.67633" lon="0.15985">
        <ele>31.86</ele>
        <time>2021-06-29T17:15:58Z</time>
      </trkpt>
      <trkpt lat="45.67629" lon="0.15982">
        <ele>31.86</ele>
        <time>2021-06-29T17:15:59Z</time>
      </trkpt>
      <trkpt lat="45.67626" lon="0.1598">
        <ele>31.86</ele>
        <time>2021-06-29T17:16:00Z</time>
      </trkpt>
      <trkpt lat="45.67622" lon="0.15981">
        <ele>31.38</ele>
        <time>2021-06-29T17:16:01Z</time>
      </trkpt>
      <trkpt lat="45.67618" lon="0.15982">
        <ele>30.9</ele>
        <time>2021-06-29T17:16:02Z</time>
      </trkpt>
      <trkpt lat="45.67618" lon="0.15982">
        <ele>30.9</ele>
        <time>2021-06-29T17:16:03Z</time>
      </trkpt>
      <trkpt lat="45.67615" lon="0.15985">
        <ele>30.9</ele>
        <time>2021-06-29T17:16:04Z</time>
      </trkpt>
      <trkpt lat="45.67611" lon="0.15988">
        <ele>30.9</ele>
        <time>2021-06-29T17:16:05Z</time>
      </trkpt>
      <trkpt lat="45.67533" lon="0.16039">
        <ele>31.38</ele>
        <time>2021-06-29T17:16:23Z</time>
      </trkpt>
      <trkpt lat="45.67456" lon="0.16046">
        <ele>28.5</ele>
        <time>2021-06-29T17:16:41Z</time>
      </trkpt>
      <trkpt lat="45.67444" lon="0.1605">
        <ele>28.98</ele>
        <time>2021-06-29T17:16:51Z</time>
      </trkpt>
      <trkpt lat="45.67444" lon="0.1605">
        <ele>28.5</ele>
        <time>2021-06-29T17:19:00Z</time>
      </trkpt>
      <trkpt lat="45.67444" lon="0.1605">
        <ele>28.02</ele>
        <time>2021-06-29T17:19:02Z</time>
      </trkpt>
      <trkpt lat="45.67451" lon="0.16048">
        <ele>28.02</ele>
        <time>2021-06-29T17:19:03Z</time>
      </trkpt>
      <trkpt lat="45.67452" lon="0.16048">
        <ele>27.53</ele>
        <time>2021-06-29T17:19:04Z</time>
      </trkpt>
      <trkpt lat="45.67455" lon="0.16047">
        <ele>27.05</ele>
        <time>2021-06-29T17:19:05Z</time>
      </trkpt>
      <trkpt lat="45.67459" lon="0.16046">
        <ele>27.05</ele>
        <time>2021-06-29T17:19:06Z</time>
      </trkpt>
      <trkpt lat="45.67519" lon="0.16043">
        <ele>28.98</ele>
        <time>2021-06-29T17:19:17Z</time>
      </trkpt>
      <trkpt lat="45.67602" lon="0.15997">
        <ele>29.94</ele>
        <time>2021-06-29T17:19:32Z</time>
      </trkpt>
      <trkpt lat="45.67613" lon="0.15986">
        <ele>30.42</ele>
        <time>2021-06-29T17:19:34Z</time>
      </trkpt>
      <trkpt lat="45.67619" lon="0.15981">
        <ele>30.9</ele>
        <time>2021-06-29T17:19:35Z</time>
      </trkpt>
      <trkpt lat="45.67624" lon="0.1598">
        <ele>30.9</ele>
        <time>2021-06-29T17:19:36Z</time>
      </trkpt>
      <trkpt lat="45.67628" lon="0.15981">
        <ele>30.42</ele>
        <time>2021-06-29T17:19:37Z</time>
      </trkpt>
      <trkpt lat="45.67631" lon="0.15983">
        <ele>29.94</ele>
        <time>2021-06-29T17:19:38Z</time>
      </trkpt>
      <trkpt lat="45.67635" lon="0.15989">
        <ele>29.94</ele>
        <time>2021-06-29T17:19:39Z</time>
      </trkpt>
      <trkpt lat="45.67659" lon="0.16042">
        <ele>31.86</ele>
        <time>2021-06-29T17:19:46Z</time>
      </trkpt>
      <trkpt lat="45.67665" lon="0.16054">
        <ele>31.86</ele>
        <time>2021-06-29T17:19:47Z</time>
      </trkpt>
      <trkpt lat="45.6767" lon="0.16058">
        <ele>31.86</ele>
        <time>2021-06-29T17:19:48Z</time>
      </trkpt>
      <trkpt lat="45.67674" lon="0.16056">
        <ele>31.86</ele>
        <time>2021-06-29T17:19:49Z</time>
      </trkpt>
      <trkpt lat="45.67674" lon="0.16056">
        <ele>31.86</ele>
        <time>2021-06-29T17:19:50Z</time>
      </trkpt>
      <trkpt lat="45.67685" lon="0.16051">
        <ele>32.34</ele>
        <time>2021-06-29T17:19:51Z</time>
      </trkpt>
      <trkpt lat="45.67685" lon="0.16051">
        <ele>32.34</ele>
        <time>2021-06-29T17:19:52Z</time>
      </trkpt>
      <trkpt lat="45.67782" lon="0.16013">
        <ele>32.82</ele>
        <time>2021-06-29T17:20:05Z</time>
      </trkpt>
      <trkpt lat="45.67788" lon="0.16011">
        <ele>32.82</ele>
        <time>2021-06-29T17:20:06Z</time>
      </trkpt>
      <trkpt lat="45.67792" lon="0.16009">
        <ele>32.82</ele>
        <time>2021-06-29T17:20:07Z</time>
      </trkpt>
      <trkpt lat="45.67796" lon="0.16005">
        <ele>32.82</ele>
        <time>2021-06-29T17:20:08Z</time>
      </trkpt>
      <trkpt lat="45.67798" lon="0.16001">
        <ele>32.82</ele>
        <time>2021-06-29T17:20:09Z</time>
      </trkpt>
      <trkpt lat="45.678" lon="0.15995">
        <ele>32.82</ele>
        <time>2021-06-29T17:20:10Z</time>
      </trkpt>
      <trkpt lat="45.67802" lon="0.15987">
        <ele>33.3</ele>
        <time>2021-06-29T17:20:11Z</time>
      </trkpt>
      <trkpt lat="45.67805" lon="0.15972">
        <ele>33.3</ele>
        <time>2021-06-29T17:20:13Z</time>
      </trkpt>
      <trkpt lat="45.67806" lon="0.15965">
        <ele>33.78</ele>
        <time>2021-06-29T17:20:14Z</time>
      </trkpt>
      <trkpt lat="45.67808" lon="0.15932">
        <ele>33.78</ele>
        <time>2021-06-29T17:20:20Z</time>
      </trkpt>
      <trkpt lat="45.67809" lon="0.15929">
        <ele>33.78</ele>
        <time>2021-06-29T17:20:21Z</time>
      </trkpt>
      <trkpt lat="45.67811" lon="0.15926">
        <ele>33.3</ele>
        <time>2021-06-29T17:20:22Z</time>
      </trkpt>
      <trkpt lat="45.67813" lon="0.15926">
        <ele>33.3</ele>
        <time>2021-06-29T17:20:23Z</time>
      </trkpt>
      <trkpt lat="45.67817" lon="0.15926">
        <ele>32.82</ele>
        <time>2021-06-29T17:20:24Z</time>
      </trkpt>
      <trkpt lat="45.67869" lon="0.15924">
        <ele>33.78</ele>
        <time>2021-06-29T17:20:35Z</time>
      </trkpt>
      <trkpt lat="45.67873" lon="0.15924">
        <ele>33.78</ele>
        <time>2021-06-29T17:20:38Z</time>
      </trkpt>
      <trkpt lat="45.67876" lon="0.15924">
        <ele>33.78</ele>
        <time>2021-06-29T17:20:39Z</time>
      </trkpt>
      <trkpt lat="45.67878" lon="0.15929">
        <ele>33.78</ele>
        <time>2021-06-29T17:20:40Z</time>
      </trkpt>
      <trkpt lat="45.67878" lon="0.15929">
        <ele>33.78</ele>
        <time>2021-06-29T17:20:41Z</time>
      </trkpt>
      <trkpt lat="45.6788" lon="0.15938">
        <ele>33.3</ele>
        <time>2021-06-29T17:20:42Z</time>
      </trkpt>
      <trkpt lat="45.6788" lon="0.15938">
        <ele>33.3</ele>
        <time>2021-06-29T17:20:43Z</time>
      </trkpt>
      <trkpt lat="45.67884" lon="0.16032">
        <ele>33.78</ele>
        <time>2021-06-29T17:20:53Z</time>
      </trkpt>
      <trkpt lat="45.67871" lon="0.16131">
        <ele>40.51</ele>
        <time>2021-06-29T17:21:02Z</time>
      </trkpt>
      <trkpt lat="45.67862" lon="0.16174">
        <ele>41.95</ele>
        <time>2021-06-29T17:21:05Z</time>
      </trkpt>
      <trkpt lat="45.67862" lon="0.16174">
        <ele>42.44</ele>
        <time>2021-06-29T17:21:06Z</time>
      </trkpt>
      <trkpt lat="45.67863" lon="0.16192">
        <ele>42.92</ele>
        <time>2021-06-29T17:21:07Z</time>
      </trkpt>
      <trkpt lat="45.67863" lon="0.16192">
        <ele>43.4</ele>
        <time>2021-06-29T17:21:08Z</time>
      </trkpt>
      <trkpt lat="45.67864" lon="0.16201">
        <ele>43.4</ele>
        <time>2021-06-29T17:21:09Z</time>
      </trkpt>
      <trkpt lat="45.67866" lon="0.1621">
        <ele>43.88</ele>
        <time>2021-06-29T17:21:10Z</time>
      </trkpt>
      <trkpt lat="45.67873" lon="0.16229">
        <ele>43.88</ele>
        <time>2021-06-29T17:21:11Z</time>
      </trkpt>
      <trkpt lat="45.67898" lon="0.16287">
        <ele>45.32</ele>
        <time>2021-06-29T17:21:18Z</time>
      </trkpt>
      <trkpt lat="45.67901" lon="0.16298">
        <ele>45.32</ele>
        <time>2021-06-29T17:21:19Z</time>
      </trkpt>
      <trkpt lat="45.67906" lon="0.16319">
        <ele>45.8</ele>
        <time>2021-06-29T17:21:20Z</time>
      </trkpt>
      <trkpt lat="45.67906" lon="0.16319">
        <ele>46.76</ele>
        <time>2021-06-29T17:21:21Z</time>
      </trkpt>
      <trkpt lat="45.67908" lon="0.16339">
        <ele>47.24</ele>
        <time>2021-06-29T17:21:22Z</time>
      </trkpt>
      <trkpt lat="45.67908" lon="0.16348">
        <ele>47.24</ele>
        <time>2021-06-29T17:21:23Z</time>
      </trkpt>
      <trkpt lat="45.67908" lon="0.16359">
        <ele>47.72</ele>
        <time>2021-06-29T17:21:29Z</time>
      </trkpt>
      <trkpt lat="45.67909" lon="0.16381">
        <ele>48.68</ele>
        <time>2021-06-29T17:21:44Z</time>
      </trkpt>
      <trkpt lat="45.67909" lon="0.16393">
        <ele>49.16</ele>
        <time>2021-06-29T17:21:50Z</time>
      </trkpt>
      <trkpt lat="45.67915" lon="0.16395">
        <ele>49.16</ele>
        <time>2021-06-29T17:21:51Z</time>
      </trkpt>
      <trkpt lat="45.67919" lon="0.16395">
        <ele>49.65</ele>
        <time>2021-06-29T17:21:52Z</time>
      </trkpt>
      <trkpt lat="45.67989" lon="0.16394">
        <ele>53.97</ele>
        <time>2021-06-29T17:22:03Z</time>
      </trkpt>
      <trkpt lat="45.68083" lon="0.16388">
        <ele>58.78</ele>
        <time>2021-06-29T17:22:15Z</time>
      </trkpt>
      <trkpt lat="45.68173" lon="0.16387">
        <ele>64.07</ele>
        <time>2021-06-29T17:22:29Z</time>
      </trkpt>
      <trkpt lat="45.68177" lon="0.16388">
        <ele>64.07</ele>
        <time>2021-06-29T17:22:30Z</time>
      </trkpt>
      <trkpt lat="45.68182" lon="0.16388">
        <ele>64.07</ele>
        <time>2021-06-29T17:22:31Z</time>
      </trkpt>
      <trkpt lat="45.68188" lon="0.16369">
        <ele>62.62</ele>
        <time>2021-06-29T17:22:39Z</time>
      </trkpt>
      <trkpt lat="45.68186" lon="0.1634">
        <ele>62.14</ele>
        <time>2021-06-29T17:22:51Z</time>
      </trkpt>
      <trkpt lat="45.68185" lon="0.16299">
        <ele>62.62</ele>
        <time>2021-06-29T17:23:26Z</time>
      </trkpt>
      <trkpt lat="45.68176" lon="0.16295">
        <ele>63.1</ele>
        <time>2021-06-29T17:23:34Z</time>
      </trkpt>
      <trkpt lat="45.68192" lon="0.16285">
        <ele>62.62</ele>
        <time>2021-06-29T17:23:53Z</time>
      </trkpt>
      <trkpt lat="45.682" lon="0.16272">
        <ele>61.66</ele>
        <time>2021-06-29T17:24:14Z</time>
      </trkpt>
      <trkpt lat="45.682" lon="0.16268">
        <ele>61.66</ele>
        <time>2021-06-29T17:24:17Z</time>
      </trkpt>
      <trkpt lat="45.68194" lon="0.16235">
        <ele>59.74</ele>
        <time>2021-06-29T17:24:41Z</time>
      </trkpt>
      <trkpt lat="45.68192" lon="0.16224">
        <ele>59.26</ele>
        <time>2021-06-29T17:25:02Z</time>
      </trkpt>
      <trkpt lat="45.68193" lon="0.16224">
        <ele>59.26</ele>
        <time>2021-06-29T17:26:45Z</time>
      </trkpt>
      <trkpt lat="45.68192" lon="0.16224">
        <ele>59.26</ele>
        <time>2021-06-29T17:28:57Z</time>
      </trkpt>
      <trkpt lat="45.68193" lon="0.16224">
        <ele>59.26</ele>
        <time>2021-06-29T17:29:14Z</time>
      </trkpt>
      <trkpt lat="45.68203" lon="0.16254">
        <ele>60.22</ele>
        <time>2021-06-29T17:29:28Z</time>
      </trkpt>
      <trkpt lat="45.68206" lon="0.16269">
        <ele>60.7</ele>
        <time>2021-06-29T17:29:33Z</time>
      </trkpt>
      <trkpt lat="45.68202" lon="0.16276">
        <ele>60.7</ele>
        <time>2021-06-29T17:29:37Z</time>
      </trkpt>
      <trkpt lat="45.6819" lon="0.16304">
        <ele>60.7</ele>
        <time>2021-06-29T17:29:49Z</time>
      </trkpt>
      <trkpt lat="45.6819" lon="0.16307">
        <ele>61.18</ele>
        <time>2021-06-29T17:30:03Z</time>
      </trkpt>
      <trkpt lat="45.68191" lon="0.1631">
        <ele>61.18</ele>
        <time>2021-06-29T17:30:15Z</time>
      </trkpt>
      <trkpt lat="45.68186" lon="0.16346">
        <ele>60.7</ele>
        <time>2021-06-29T17:30:25Z</time>
      </trkpt>
      <trkpt lat="45.68187" lon="0.16353">
        <ele>61.18</ele>
        <time>2021-06-29T17:30:26Z</time>
      </trkpt>
      <trkpt lat="45.68187" lon="0.16353">
        <ele>61.66</ele>
        <time>2021-06-29T17:30:27Z</time>
      </trkpt>
      <trkpt lat="45.68187" lon="0.1636">
        <ele>61.66</ele>
        <time>2021-06-29T17:30:28Z</time>
      </trkpt>
      <trkpt lat="45.68187" lon="0.16366">
        <ele>62.14</ele>
        <time>2021-06-29T17:30:29Z</time>
      </trkpt>
      <trkpt lat="45.68188" lon="0.16371">
        <ele>62.14</ele>
        <time>2021-06-29T17:30:30Z</time>
      </trkpt>
      <trkpt lat="45.68188" lon="0.16376">
        <ele>62.14</ele>
        <time>2021-06-29T17:30:31Z</time>
      </trkpt>
      <trkpt lat="45.68188" lon="0.1638">
        <ele>62.14</ele>
        <time>2021-06-29T17:30:32Z</time>
      </trkpt>
      <trkpt lat="45.68188" lon="0.16382">
        <ele>62.14</ele>
        <time>2021-06-29T17:30:33Z</time>
      </trkpt>
      <trkpt lat="45.68188" lon="0.16385">
        <ele>62.14</ele>
        <time>2021-06-29T17:30:34Z</time>
      </trkpt>
      <trkpt lat="45.68184" lon="0.16389">
        <ele>62.14</ele>
        <time>2021-06-29T17:30:35Z</time>
      </trkpt>
      <trkpt lat="45.6818" lon="0.16388">
        <ele>62.14</ele>
        <time>2021-06-29T17:30:36Z</time>
      </trkpt>
      <trkpt lat="45.68177" lon="0.16388">
        <ele>61.66</ele>
        <time>2021-06-29T17:30:37Z</time>
      </trkpt>
      <trkpt lat="45.68126" lon="0.16387">
        <ele>60.22</ele>
        <time>2021-06-29T17:30:50Z</time>
      </trkpt>
      <trkpt lat="45.6806" lon="0.1639">
        <ele>56.86</ele>
        <time>2021-06-29T17:31:02Z</time>
      </trkpt>
      <trkpt lat="45.68023" lon="0.16393">
        <ele>54.93</ele>
        <time>2021-06-29T17:31:10Z</time>
      </trkpt>
      <trkpt lat="45.67964" lon="0.16394">
        <ele>52.53</ele>
        <time>2021-06-29T17:31:23Z</time>
      </trkpt>
      <trkpt lat="45.67953" lon="0.16394">
        <ele>51.57</ele>
        <time>2021-06-29T17:31:32Z</time>
      </trkpt>
      <trkpt lat="45.6793" lon="0.16394">
        <ele>50.13</ele>
        <time>2021-06-29T17:31:45Z</time>
      </trkpt>
      <trkpt lat="45.67913" lon="0.16396">
        <ele>49.16</ele>
        <time>2021-06-29T17:31:50Z</time>
      </trkpt>
      <trkpt lat="45.67909" lon="0.16389">
        <ele>49.16</ele>
        <time>2021-06-29T17:31:51Z</time>
      </trkpt>
      <trkpt lat="45.67909" lon="0.16385">
        <ele>49.16</ele>
        <time>2021-06-29T17:31:52Z</time>
      </trkpt>
      <trkpt lat="45.67909" lon="0.1638">
        <ele>48.68</ele>
        <time>2021-06-29T17:31:53Z</time>
      </trkpt>
      <trkpt lat="45.67909" lon="0.16368">
        <ele>48.68</ele>
        <time>2021-06-29T17:31:54Z</time>
      </trkpt>
      <trkpt lat="45.67909" lon="0.16368">
        <ele>48.68</ele>
        <time>2021-06-29T17:31:55Z</time>
      </trkpt>
      <trkpt lat="45.67908" lon="0.16352">
        <ele>48.2</ele>
        <time>2021-06-29T17:31:56Z</time>
      </trkpt>
      <trkpt lat="45.67888" lon="0.16263">
        <ele>47.24</ele>
        <time>2021-06-29T17:32:09Z</time>
      </trkpt>
      <trkpt lat="45.67866" lon="0.16211">
        <ele>46.76</ele>
        <time>2021-06-29T17:32:17Z</time>
      </trkpt>
      <trkpt lat="45.67865" lon="0.16205">
        <ele>46.28</ele>
        <time>2021-06-29T17:32:18Z</time>
      </trkpt>
      <trkpt lat="45.67864" lon="0.16198">
        <ele>45.8</ele>
        <time>2021-06-29T17:32:19Z</time>
      </trkpt>
      <trkpt lat="45.67863" lon="0.16191">
        <ele>45.32</ele>
        <time>2021-06-29T17:32:20Z</time>
      </trkpt>
      <trkpt lat="45.67862" lon="0.16183">
        <ele>44.84</ele>
        <time>2021-06-29T17:32:21Z</time>
      </trkpt>
      <trkpt lat="45.67862" lon="0.16174">
        <ele>44.84</ele>
        <time>2021-06-29T17:32:22Z</time>
      </trkpt>
      <trkpt lat="45.67862" lon="0.16165">
        <ele>44.36</ele>
        <time>2021-06-29T17:32:23Z</time>
      </trkpt>
      <trkpt lat="45.67865" lon="0.16157">
        <ele>43.88</ele>
        <time>2021-06-29T17:32:24Z</time>
      </trkpt>
      <trkpt lat="45.67883" lon="0.16017">
        <ele>38.59</ele>
        <time>2021-06-29T17:32:38Z</time>
      </trkpt>
      <trkpt lat="45.67879" lon="0.15935">
        <ele>37.15</ele>
        <time>2021-06-29T17:32:48Z</time>
      </trkpt>
      <trkpt lat="45.67879" lon="0.15932">
        <ele>37.15</ele>
        <time>2021-06-29T17:32:52Z</time>
      </trkpt>
      <trkpt lat="45.67878" lon="0.15927">
        <ele>37.15</ele>
        <time>2021-06-29T17:32:53Z</time>
      </trkpt>
      <trkpt lat="45.67877" lon="0.15924">
        <ele>37.15</ele>
        <time>2021-06-29T17:32:54Z</time>
      </trkpt>
      <trkpt lat="45.67876" lon="0.15924">
        <ele>36.67</ele>
        <time>2021-06-29T17:32:55Z</time>
      </trkpt>
      <trkpt lat="45.67874" lon="0.15924">
        <ele>36.67</ele>
        <time>2021-06-29T17:32:56Z</time>
      </trkpt>
      <trkpt lat="45.67871" lon="0.15924">
        <ele>36.19</ele>
        <time>2021-06-29T17:32:57Z</time>
      </trkpt>
      <trkpt lat="45.67829" lon="0.15925">
        <ele>35.71</ele>
        <time>2021-06-29T17:33:04Z</time>
      </trkpt>
      <trkpt lat="45.67811" lon="0.15926">
        <ele>35.23</ele>
        <time>2021-06-29T17:33:08Z</time>
      </trkpt>
      <trkpt lat="45.67807" lon="0.15936">
        <ele>34.74</ele>
        <time>2021-06-29T17:33:09Z</time>
      </trkpt>
      <trkpt lat="45.67807" lon="0.15936">
        <ele>34.74</ele>
        <time>2021-06-29T17:33:10Z</time>
      </trkpt>
      <trkpt lat="45.67806" lon="0.15941">
        <ele>34.26</ele>
        <time>2021-06-29T17:33:11Z</time>
      </trkpt>
      <trkpt lat="45.67806" lon="0.15948">
        <ele>33.78</ele>
        <time>2021-06-29T17:33:12Z</time>
      </trkpt>
      <trkpt lat="45.67806" lon="0.15956">
        <ele>33.3</ele>
        <time>2021-06-29T17:33:13Z</time>
      </trkpt>
      <trkpt lat="45.67806" lon="0.15964">
        <ele>33.78</ele>
        <time>2021-06-29T17:33:14Z</time>
      </trkpt>
      <trkpt lat="45.67806" lon="0.15972">
        <ele>33.78</ele>
        <time>2021-06-29T17:33:15Z</time>
      </trkpt>
      <trkpt lat="45.67802" lon="0.15987">
        <ele>33.78</ele>
        <time>2021-06-29T17:33:16Z</time>
      </trkpt>
      <trkpt lat="45.67802" lon="0.15987">
        <ele>34.26</ele>
        <time>2021-06-29T17:33:17Z</time>
      </trkpt>
      <trkpt lat="45.67798" lon="0.16002">
        <ele>34.26</ele>
        <time>2021-06-29T17:33:19Z</time>
      </trkpt>
      <trkpt lat="45.67795" lon="0.16006">
        <ele>34.26</ele>
        <time>2021-06-29T17:33:20Z</time>
      </trkpt>
      <trkpt lat="45.67791" lon="0.1601">
        <ele>34.26</ele>
        <time>2021-06-29T17:33:21Z</time>
      </trkpt>
      <trkpt lat="45.67788" lon="0.16011">
        <ele>33.78</ele>
        <time>2021-06-29T17:33:22Z</time>
      </trkpt>
      <trkpt lat="45.67783" lon="0.16013">
        <ele>33.78</ele>
        <time>2021-06-29T17:33:23Z</time>
      </trkpt>
      <trkpt lat="45.67683" lon="0.16052">
        <ele>34.26</ele>
        <time>2021-06-29T17:33:37Z</time>
      </trkpt>
      <trkpt lat="45.67669" lon="0.16058">
        <ele>34.26</ele>
        <time>2021-06-29T17:33:41Z</time>
      </trkpt>
      <trkpt lat="45.67665" lon="0.16055">
        <ele>34.26</ele>
        <time>2021-06-29T17:33:42Z</time>
      </trkpt>
      <trkpt lat="45.67663" lon="0.16051">
        <ele>34.26</ele>
        <time>2021-06-29T17:33:43Z</time>
      </trkpt>
      <trkpt lat="45.67635" lon="0.15989">
        <ele>33.3</ele>
        <time>2021-06-29T17:33:52Z</time>
      </trkpt>
      <trkpt lat="45.67632" lon="0.15983">
        <ele>33.3</ele>
        <time>2021-06-29T17:33:53Z</time>
      </trkpt>
      <trkpt lat="45.67624" lon="0.1598">
        <ele>33.3</ele>
        <time>2021-06-29T17:33:54Z</time>
      </trkpt>
      <trkpt lat="45.67619" lon="0.15981">
        <ele>33.3</ele>
        <time>2021-06-29T17:33:55Z</time>
      </trkpt>
      <trkpt lat="45.67614" lon="0.15985">
        <ele>32.82</ele>
        <time>2021-06-29T17:33:56Z</time>
      </trkpt>
      <trkpt lat="45.6761" lon="0.15989">
        <ele>32.34</ele>
        <time>2021-06-29T17:33:57Z</time>
      </trkpt>
      <trkpt lat="45.67562" lon="0.16028">
        <ele>30.9</ele>
        <time>2021-06-29T17:34:10Z</time>
      </trkpt>
      <trkpt lat="45.67478" lon="0.16046">
        <ele>29.46</ele>
        <time>2021-06-29T17:34:29Z</time>
      </trkpt>
      <trkpt lat="45.67448" lon="0.16049">
        <ele>29.94</ele>
        <time>2021-06-29T17:34:37Z</time>
      </trkpt>
      <trkpt lat="45.67446" lon="0.1605">
        <ele>29.94</ele>
        <time>2021-06-29T17:34:38Z</time>
      </trkpt>
      <trkpt lat="45.67445" lon="0.1605">
        <ele>29.94</ele>
        <time>2021-06-29T17:34:52Z</time>
      </trkpt>
      <trkpt lat="45.67445" lon="0.1605">
        <ele>31.38</ele>
        <time>2021-06-29T17:35:10Z</time>
      </trkpt>
      <trkpt lat="45.67445" lon="0.1605">
        <ele>31.86</ele>
        <time>2021-06-29T17:36:37Z</time>
      </trkpt>
      <trkpt lat="45.67445" lon="0.1605">
        <ele>31.86</ele>
        <time>2021-06-29T17:38:33Z</time>
      </trkpt>
    </trkseg>
  </trk>
</gpx>